createdAt,value
2022-09-28T00:01:07.454Z,5.85
2022-09-28T00:03:35.560Z,5.57
2022-09-28T00:06:04.886Z,4.88
2022-09-28T00:08:32.976Z,6.15
2022-09-28T00:11:00.956Z,13.00
2022-09-28T00:13:29.483Z,25.95
2022-09-28T00:16:03.833Z,20.55
2022-09-28T00:18:32.320Z,11.02
2022-09-28T00:21:05.773Z,20.80
2022-09-28T00:23:34.954Z,15.52
2022-09-28T00:26:04.087Z,10.27
2022-09-28T00:28:32.579Z,6.80
2022-09-28T00:31:02.194Z,7.10
2022-09-28T00:33:30.134Z,7.10
2022-09-28T00:35:58.827Z,8.48
2022-09-28T00:38:29.930Z,7.45
2022-09-28T00:40:59.745Z,7.57
2022-09-28T00:43:28.064Z,7.35
2022-09-28T00:46:00.576Z,8.00
2022-09-28T00:48:33.684Z,8.02
2022-09-28T00:51:07.992Z,8.75
2022-09-28T00:53:39.541Z,9.57
2022-09-28T00:56:12.958Z,8.05
2022-09-28T00:58:45.240Z,8.50
2022-09-28T01:01:13.618Z,7.22
2022-09-28T01:03:45.726Z,6.68
2022-09-28T01:06:19.484Z,7.32
2022-09-28T01:08:51.795Z,8.15
2022-09-28T01:11:20.556Z,7.68
2022-09-28T01:13:50.721Z,8.10
2022-09-28T01:16:30.693Z,8.45
2022-09-28T01:19:18.927Z,7.68
2022-09-28T01:21:53.766Z,7.05
2022-09-28T01:24:39.497Z,8.73
2022-09-28T01:27:14.732Z,8.88
2022-09-28T01:29:53.483Z,8.88
2022-09-28T01:32:39.333Z,9.07
2022-09-28T01:35:11.628Z,8.05
2022-09-28T01:37:45.198Z,10.25
2022-09-28T01:40:15.914Z,8.25
2022-09-28T01:42:48.701Z,8.73
2022-09-28T01:45:22.979Z,57.90
2022-09-28T01:47:56.701Z,25.08
2022-09-28T01:50:29.682Z,9.20
2022-09-28T01:53:04.038Z,8.27
2022-09-28T01:55:35.134Z,7.65
2022-09-28T01:58:12.780Z,7.53
2022-09-28T02:00:45.719Z,7.30
2022-09-28T02:03:21.823Z,7.82
2022-09-28T02:06:00.196Z,8.23
2022-09-28T02:08:33.201Z,8.07
2022-09-28T02:11:07.090Z,8.15
2022-09-28T02:13:40.807Z,8.77
2022-09-28T02:16:15.122Z,8.18
2022-09-28T02:18:44.937Z,8.27
2022-09-28T02:21:24.005Z,7.80
2022-09-28T02:23:57.370Z,7.15
2022-09-28T02:26:31.461Z,7.85
2022-09-28T02:29:00.967Z,7.57
2022-09-28T02:31:29.310Z,7.30
2022-09-28T02:33:58.814Z,7.32
2022-09-28T02:36:27.638Z,7.07
2022-09-28T02:38:57.254Z,7.63
2022-09-28T02:41:40.752Z,7.68
2022-09-28T02:44:22.940Z,7.78
2022-09-28T02:47:00.269Z,7.85
2022-09-28T02:49:41.383Z,8.07
2022-09-28T02:52:34.937Z,8.27
2022-09-28T02:55:21.257Z,8.02
2022-09-28T02:58:04.756Z,8.98
2022-09-28T03:00:39.181Z,8.13
2022-09-28T03:03:19.082Z,7.40
2022-09-28T03:06:00.506Z,7.85
2022-09-28T03:08:38.663Z,7.75
2022-09-28T03:11:15.820Z,8.40
2022-09-28T03:13:48.112Z,7.60
2022-09-28T03:16:19.338Z,7.93
2022-09-28T03:18:50.118Z,7.43
2022-09-28T03:21:19.651Z,7.82
2022-09-28T03:23:48.370Z,8.00
2022-09-28T03:28:46.075Z,8.07
2022-09-28T03:31:20.837Z,8.50
2022-09-28T03:33:48.712Z,8.10
2022-09-28T03:36:16.613Z,8.38
2022-09-28T03:38:44.674Z,8.73
2022-09-28T03:41:12.555Z,9.35
2022-09-28T03:43:43.427Z,8.15
2022-09-28T03:46:13.949Z,8.10
2022-09-28T03:48:48.575Z,8.68
2022-09-28T03:53:44.688Z,6.95
2022-09-28T03:56:16.166Z,6.43
2022-09-28T03:58:44.040Z,5.72
2022-09-28T04:01:17.692Z,5.93
2022-09-28T04:03:49.018Z,4.90
2022-09-28T04:06:17.430Z,4.53
2022-09-28T04:08:45.341Z,4.32
2022-09-28T04:11:13.200Z,3.20
2022-09-28T04:13:41.827Z,3.15
2022-09-28T04:16:12.664Z,2.35
2022-09-28T04:18:44.613Z,2.10
2022-09-28T04:21:38.594Z,2.55
2022-09-28T04:24:12.218Z,3.03
2022-09-28T04:26:40.077Z,3.38
2022-09-28T04:29:15.736Z,2.10
2022-09-28T04:31:49.880Z,2.22
2022-09-28T04:34:21.440Z,1.98
2022-09-28T04:36:51.540Z,1.90
2022-09-28T04:39:20.168Z,2.05
2022-09-28T04:41:51.310Z,2.17
2022-09-28T04:44:19.836Z,2.15
2022-09-28T04:46:49.083Z,2.03
2022-09-28T04:49:31.910Z,1.95
2022-09-28T04:52:08.332Z,2.03
2022-09-28T04:54:36.464Z,2.65
2022-09-28T04:57:06.045Z,2.00
2022-09-28T04:59:33.971Z,2.70
2022-09-28T05:02:01.919Z,2.70
2022-09-28T05:04:48.198Z,2.55
2022-09-28T05:07:39.459Z,3.30
2022-09-28T05:10:08.440Z,3.10
2022-09-28T05:12:38.760Z,3.42
2022-09-28T05:15:07.484Z,4.18
2022-09-28T05:17:35.391Z,3.60
2022-09-28T05:20:06.847Z,4.15
2022-09-28T05:22:35.094Z,5.30
2022-09-28T05:25:04.901Z,5.15
2022-09-28T05:27:42.417Z,5.35
2022-09-28T05:30:25.561Z,6.57
2022-09-28T05:33:13.383Z,6.53
2022-09-28T05:35:53.330Z,6.25
2022-09-28T05:38:22.394Z,6.90
2022-09-28T05:40:51.623Z,7.68
2022-09-28T05:43:19.615Z,8.68
2022-09-28T05:45:51.613Z,9.75
2022-09-28T05:48:23.330Z,9.48
2022-09-28T05:50:52.250Z,10.15
2022-09-28T05:53:20.504Z,12.23
2022-09-28T05:55:48.859Z,13.25
2022-09-28T05:58:18.445Z,12.30
2022-09-28T06:00:46.410Z,13.25
2022-09-28T06:03:15.702Z,13.02
2022-09-28T06:05:43.502Z,12.60
2022-09-28T06:08:11.788Z,13.48
2022-09-28T06:10:44.142Z,14.05
2022-09-28T06:13:12.373Z,14.45
2022-09-28T06:15:44.150Z,15.57
2022-09-28T06:18:15.261Z,15.85
2022-09-28T06:21:10.893Z,16.02
2022-09-28T06:23:48.150Z,15.88
2022-09-28T06:26:18.727Z,16.35
2022-09-28T06:28:47.292Z,17.23
2022-09-28T06:31:17.173Z,16.33
2022-09-28T06:33:49.711Z,16.13
2022-09-28T06:36:19.544Z,16.50
2022-09-28T06:38:47.570Z,17.27
2022-09-28T06:41:16.166Z,17.35
2022-09-28T06:43:46.215Z,17.30
2022-09-28T06:46:14.367Z,16.67
2022-09-28T06:48:50.040Z,16.85
2022-09-28T06:51:37.681Z,15.70
2022-09-28T06:54:19.449Z,14.98
2022-09-28T06:56:57.639Z,14.98
2022-09-28T06:59:25.757Z,15.50
2022-09-28T07:01:55.054Z,15.98
2022-09-28T07:04:47.080Z,15.27
2022-09-28T07:07:33.718Z,16.48
2022-09-28T07:10:24.221Z,15.20
2022-09-28T07:13:47.865Z,15.25
2022-09-28T07:16:13.376Z,16.88
2022-09-28T07:18:42.295Z,16.35
2022-09-28T07:21:24.762Z,16.30
2022-09-28T07:23:56.574Z,14.68
2022-09-28T07:26:25.622Z,15.23
2022-09-28T07:29:07.035Z,16.13
2022-09-28T07:32:01.365Z,15.32
2022-09-28T07:34:44.011Z,14.07
2022-09-28T07:37:23.055Z,13.70
2022-09-28T07:40:08.645Z,14.20
2022-09-28T07:42:39.181Z,13.80
2022-09-28T07:45:08.965Z,13.10
2022-09-28T07:47:37.159Z,14.32
2022-09-28T07:50:34.150Z,14.13
2022-09-28T07:53:13.189Z,13.30
2022-09-28T07:56:07.067Z,12.23
2022-09-28T07:58:41.939Z,12.68
2022-09-28T08:01:28.093Z,11.88
2022-09-28T08:03:56.292Z,11.95
2022-09-28T08:06:24.814Z,13.32
2022-09-28T08:08:56.373Z,11.77
2022-09-28T08:11:32.226Z,11.53
2022-09-28T08:14:13.692Z,12.85
2022-09-28T08:17:10.837Z,10.13
2022-09-28T08:19:58.227Z,9.38
2022-09-28T08:22:26.266Z,9.95
2022-09-28T08:24:58.369Z,8.40
2022-09-28T08:27:26.333Z,9.50
2022-09-28T08:29:55.054Z,8.70
2022-09-28T08:32:47.643Z,7.22
2022-09-28T08:35:35.849Z,7.15
2022-09-28T08:38:15.263Z,7.47
2022-09-28T08:41:20.348Z,7.05
2022-09-28T08:44:26.242Z,7.43
2022-09-28T08:47:06.196Z,7.38
2022-09-28T08:49:51.613Z,6.85
2022-09-28T08:52:27.082Z,6.88
2022-09-28T08:55:08.657Z,7.82
2022-09-28T08:57:47.984Z,7.22
2022-09-28T09:00:22.546Z,7.00
2022-09-28T09:02:51.021Z,7.13
2022-09-28T09:05:25.614Z,7.07
2022-09-28T09:08:25.194Z,6.75
2022-09-28T09:10:58.901Z,7.80
2022-09-28T09:13:57.353Z,9.02
2022-09-28T09:16:36.826Z,8.40
2022-09-28T09:19:36.229Z,8.60
2022-09-28T09:22:40.773Z,9.60
2022-09-28T09:25:19.595Z,9.50
2022-09-28T09:28:08.543Z,9.50
2022-09-28T09:30:50.211Z,10.38
2022-09-28T09:33:41.942Z,9.70
2022-09-28T09:37:03.081Z,9.93
2022-09-28T09:40:07.440Z,10.02
2022-09-28T09:43:29.387Z,9.82
2022-09-28T09:46:29.731Z,9.48
2022-09-28T09:49:20.771Z,9.40
2022-09-28T09:51:57.660Z,8.13
2022-09-28T09:54:31.625Z,9.40
2022-09-28T09:57:04.714Z,8.32
2022-09-28T09:59:48.412Z,8.60
2022-09-28T10:02:39.769Z,8.40
2022-09-28T10:05:23.321Z,7.85
2022-09-28T10:07:56.020Z,8.23
2022-09-28T10:10:29.475Z,8.32
2022-09-28T10:13:14.705Z,9.70
2022-09-28T10:15:45.843Z,10.10
2022-09-28T10:18:22.378Z,9.57
2022-09-28T10:21:14.952Z,10.32
2022-09-28T10:23:59.179Z,10.93
2022-09-28T10:26:35.768Z,10.85
2022-09-28T10:29:09.449Z,10.05
2022-09-28T10:31:40.823Z,8.57
2022-09-28T10:34:17.465Z,8.52
2022-09-28T10:36:50.809Z,8.45
2022-09-28T10:39:29.247Z,8.13
2022-09-28T10:42:00.123Z,9.13
2022-09-28T10:44:33.652Z,9.98
2022-09-28T10:47:10.092Z,7.75
2022-09-28T10:49:47.010Z,9.30
2022-09-28T10:52:32.820Z,9.40
2022-09-28T10:55:01.612Z,10.00
2022-09-28T10:57:33.911Z,11.75
2022-09-28T11:00:32.020Z,11.85
2022-09-28T11:03:21.496Z,12.70
2022-09-28T11:06:03.295Z,11.00
2022-09-28T11:08:35.327Z,12.75
2022-09-28T11:11:07.045Z,13.57
2022-09-28T11:13:42.074Z,13.43
2022-09-28T11:16:23.583Z,12.70
2022-09-28T11:18:52.007Z,10.52
2022-09-28T11:21:26.281Z,9.77
2022-09-28T11:24:08.264Z,6.90
2022-09-28T11:26:44.527Z,6.45
2022-09-28T11:29:41.885Z,7.30
2022-09-28T11:32:40.268Z,5.45
2022-09-28T11:35:23.410Z,6.15
2022-09-28T11:38:16.493Z,4.40
2022-09-28T11:41:33.175Z,5.13
2022-09-28T11:44:32.513Z,4.10
2022-09-28T11:47:45.788Z,4.13
2022-09-28T11:50:24.414Z,5.00
2022-09-28T11:53:01.056Z,5.55
2022-09-28T11:55:36.289Z,5.53
2022-09-28T11:58:12.283Z,4.95
2022-09-28T12:00:47.009Z,4.05
2022-09-28T12:03:19.542Z,4.18
2022-09-28T12:05:52.671Z,4.05
2022-09-28T12:08:27.420Z,4.03
2022-09-28T12:11:22.984Z,2.88
2022-09-28T12:14:18.001Z,3.40
2022-09-28T12:17:05.989Z,3.90
2022-09-28T12:19:39.640Z,3.00
2022-09-28T12:22:17.274Z,3.00
2022-09-28T12:24:47.487Z,3.38
2022-09-28T12:27:24.635Z,2.72
2022-09-28T12:29:59.941Z,2.70
2022-09-28T12:32:35.642Z,3.75
2022-09-28T12:35:04.439Z,4.05
2022-09-28T12:37:46.127Z,2.88
2022-09-28T12:40:30.116Z,3.15
2022-09-28T12:43:12.975Z,4.20
2022-09-28T12:46:14.190Z,5.85
2022-09-28T12:50:20.102Z,4.90
2022-09-28T12:52:00.454Z,3.78
2022-09-28T12:54:44.097Z,4.13
2022-09-28T12:57:31.951Z,4.00
2022-09-28T13:00:06.273Z,3.88
2022-09-28T13:03:07.020Z,3.90
2022-09-28T13:06:24.193Z,3.22
2022-09-28T13:09:08.923Z,3.40
2022-09-28T13:11:44.959Z,3.50
2022-09-28T13:14:37.290Z,2.92
2022-09-28T13:17:18.765Z,3.45
2022-09-28T13:19:55.474Z,3.03
2022-09-28T13:22:34.112Z,2.70
2022-09-28T13:25:09.999Z,2.70
2022-09-28T13:27:42.378Z,1.70
2022-09-28T13:30:15.272Z,2.13
2022-09-28T13:32:46.795Z,1.38
2022-09-28T13:35:16.217Z,1.52
2022-09-28T13:37:44.139Z,1.60
2022-09-28T13:40:12.407Z,1.05
2022-09-28T13:43:07.649Z,1.50
2022-09-28T13:45:49.988Z,3.78
2022-09-28T13:48:22.864Z,1.20
2022-09-28T13:51:06.351Z,1.30
2022-09-28T13:53:44.795Z,1.30
2022-09-28T13:56:27.716Z,1.77
2022-09-28T13:59:01.170Z,1.50
2022-09-28T14:01:33.951Z,1.25
2022-09-28T14:04:17.731Z,1.60
2022-09-28T14:06:55.794Z,1.90
2022-09-28T14:09:27.937Z,2.05
2022-09-28T14:11:58.266Z,2.38
2022-09-28T14:17:16.561Z,3.50
2022-09-28T14:19:48.245Z,3.00
2022-09-28T14:22:26.139Z,2.45
2022-09-28T14:25:07.600Z,2.60
2022-09-28T14:27:48.593Z,2.70
2022-09-28T14:30:23.726Z,2.42
2022-09-28T14:32:57.726Z,2.85
2022-09-28T14:35:33.093Z,2.67
2022-09-28T14:38:24.291Z,2.55
2022-09-28T14:41:10.566Z,3.17
2022-09-28T14:43:58.870Z,2.70
2022-09-28T14:46:46.811Z,2.45
2022-09-28T14:49:50.178Z,2.80
2022-09-28T14:52:41.638Z,2.30
2022-09-28T14:55:15.197Z,2.22
2022-09-28T14:57:43.975Z,2.10
2022-09-28T15:00:20.260Z,2.60
2022-09-28T15:02:52.551Z,2.13
2022-09-28T15:05:25.260Z,1.50
2022-09-28T15:07:56.116Z,1.98
2022-09-28T15:10:31.251Z,1.90
2022-09-28T15:13:01.887Z,2.08
2022-09-28T15:15:34.999Z,1.90
2022-09-28T15:18:28.857Z,1.80
2022-09-28T15:20:57.154Z,1.88
2022-09-28T15:23:33.958Z,2.30
2022-09-28T15:26:02.823Z,1.70
2022-09-28T15:28:30.901Z,2.53
2022-09-28T15:31:03.584Z,1.40
2022-09-28T15:33:51.129Z,1.92
2022-09-28T15:36:24.810Z,1.27
2022-09-28T15:39:01.347Z,0.98
2022-09-28T15:41:31.262Z,1.00
2022-09-28T15:44:24.126Z,1.20
2022-09-28T15:47:13.595Z,1.45
2022-09-28T15:49:45.992Z,1.30
2022-09-28T15:52:36.374Z,1.52
2022-09-28T15:57:42.033Z,1.35
2022-09-28T16:00:26.561Z,1.00
2022-09-28T16:03:20.413Z,1.30
2022-09-28T16:05:51.191Z,0.98
2022-09-28T16:08:24.702Z,1.33
2022-09-28T16:11:08.086Z,1.50
2022-09-28T16:13:37.091Z,1.80
2022-09-28T16:16:05.161Z,2.10
2022-09-28T16:18:36.928Z,3.03
2022-09-28T16:21:25.432Z,1.60
2022-09-28T16:23:56.126Z,1.92
2022-09-28T16:26:33.007Z,1.60
2022-09-28T16:29:02.336Z,1.52
2022-09-28T16:31:35.054Z,1.90
2022-09-28T16:34:17.639Z,2.10
2022-09-28T16:36:47.834Z,1.70
2022-09-28T16:39:17.408Z,2.08
2022-09-28T16:41:49.573Z,1.48
2022-09-28T16:44:24.736Z,2.13
2022-09-28T16:46:55.191Z,1.95
2022-09-28T16:51:53.599Z,2.00
2022-09-28T16:54:41.046Z,5.75
2022-09-28T16:57:13.280Z,2.55
2022-09-28T16:59:41.141Z,1.90
2022-09-28T17:02:35.365Z,1.67
2022-09-28T17:05:07.040Z,1.50
2022-09-28T17:07:35.326Z,2.42
2022-09-28T17:10:03.663Z,2.83
2022-09-28T17:12:32.963Z,1.90
2022-09-28T17:15:01.197Z,4.65
2022-09-28T17:17:31.570Z,5.00
2022-09-28T17:22:27.408Z,6.50
2022-09-28T17:24:55.270Z,10.90
2022-09-28T17:27:23.165Z,12.43
2022-09-28T17:29:52.519Z,22.30
2022-09-28T17:32:20.683Z,11.23
2022-09-28T17:35:00.860Z,16.60
2022-09-28T17:37:36.246Z,13.38
2022-09-28T17:40:13.990Z,8.90
2022-09-28T17:42:42.009Z,6.03
2022-09-28T17:45:11.500Z,6.55
2022-09-28T17:47:39.608Z,2.97
2022-09-28T17:50:21.156Z,2.65
2022-09-28T17:52:52.018Z,5.45
2022-09-28T17:55:21.596Z,5.28
2022-09-28T17:57:49.864Z,5.05
2022-09-28T18:00:19.604Z,4.97
2022-09-28T18:02:47.804Z,4.57
2022-09-28T18:05:15.980Z,3.38
2022-09-28T18:07:47.586Z,3.70
2022-09-28T18:10:18.153Z,5.00
2022-09-28T18:12:46.739Z,5.50
2022-09-28T18:15:15.144Z,8.07
2022-09-28T18:17:45.086Z,9.23
2022-09-28T18:20:14.412Z,9.48
2022-09-28T18:22:42.507Z,9.25
2022-09-28T18:25:11.225Z,8.52
2022-09-28T18:27:39.249Z,7.93
2022-09-28T18:30:08.547Z,7.72
2022-09-28T18:32:37.511Z,6.47
2022-09-28T18:35:11.199Z,6.60
2022-09-28T18:37:40.947Z,5.82
2022-09-28T18:40:11.056Z,5.72
2022-09-28T18:45:11.224Z,4.50
2022-09-28T18:47:39.362Z,3.88
2022-09-28T18:50:11.539Z,3.10
2022-09-28T18:52:40.574Z,3.80
2022-09-28T18:55:09.071Z,3.92
2022-09-28T18:57:37.393Z,5.05
2022-09-28T19:00:07.989Z,4.82
2022-09-28T19:02:36.352Z,5.57
2022-09-28T19:05:06.558Z,5.15
2022-09-28T19:07:36.937Z,8.20
2022-09-28T19:10:06.411Z,7.85
2022-09-28T19:12:34.660Z,6.85
2022-09-28T19:15:02.547Z,6.80
2022-09-28T19:17:30.414Z,6.32
2022-09-28T19:19:58.878Z,5.88
2022-09-28T19:22:26.945Z,6.00
2022-09-28T19:24:56.804Z,6.55
2022-09-28T19:27:24.754Z,7.05
2022-09-28T19:29:52.741Z,5.18
2022-09-28T19:32:20.651Z,4.07
2022-09-28T19:34:48.841Z,4.10
2022-09-28T19:37:17.375Z,3.42
2022-09-28T19:39:45.906Z,3.55
2022-09-28T19:42:15.454Z,3.47
2022-09-28T19:44:46.004Z,4.05
2022-09-28T19:47:14.378Z,4.03
2022-09-28T19:49:42.765Z,4.07
2022-09-28T19:52:16.637Z,4.75
2022-09-28T19:54:48.374Z,5.40
2022-09-28T19:57:19.621Z,4.35
2022-09-28T19:59:52.044Z,4.93
2022-09-28T20:02:21.157Z,4.82
2022-09-28T20:04:49.603Z,4.30
2022-09-28T20:07:17.637Z,3.75
2022-09-28T20:09:45.559Z,4.18
2022-09-28T20:12:13.624Z,4.22
2022-09-28T20:14:42.999Z,4.63
2022-09-28T20:17:11.186Z,4.97
2022-09-28T20:19:39.365Z,4.47
2022-09-28T20:22:07.615Z,3.95
2022-09-28T20:24:35.554Z,8.27
2022-09-28T20:27:03.552Z,9.70
2022-09-28T20:29:33.474Z,7.40
2022-09-28T20:32:04.097Z,7.35
2022-09-28T20:34:33.490Z,6.60
2022-09-28T20:37:01.550Z,6.47
2022-09-28T20:39:29.550Z,5.70
2022-09-28T20:41:57.649Z,5.72
2022-09-28T20:44:25.697Z,5.78
2022-09-28T20:46:53.906Z,5.85
2022-09-28T20:49:23.139Z,5.75
2022-09-28T20:51:51.179Z,6.53
2022-09-28T20:54:19.261Z,7.60
2022-09-28T20:56:48.300Z,7.35
2022-09-28T20:59:16.440Z,7.57
2022-09-28T21:01:44.691Z,6.97
2022-09-28T21:04:12.973Z,7.40
2022-09-28T21:06:43.291Z,15.20
2022-09-28T21:09:12.520Z,13.88
2022-09-28T21:11:41.874Z,10.32
2022-09-28T21:14:10.788Z,8.75
2022-09-28T21:16:39.673Z,7.63
2022-09-28T21:19:07.642Z,6.40
2022-09-28T21:21:35.704Z,5.63
2022-09-28T21:24:05.407Z,6.45
2022-09-28T21:26:35.126Z,5.88
2022-09-28T21:29:05.083Z,6.28
2022-09-28T21:31:38.951Z,7.18
2022-09-28T21:34:07.602Z,7.53
2022-09-28T21:36:35.594Z,7.53
2022-09-28T21:39:08.322Z,6.63
2022-09-28T21:41:38.312Z,7.60
2022-09-28T21:44:06.597Z,6.15
2022-09-28T21:46:34.802Z,7.05
2022-09-28T21:49:03.104Z,6.93
2022-09-28T21:51:31.829Z,7.95
2022-09-28T21:54:00.033Z,7.35
2022-09-28T21:56:29.477Z,8.15
2022-09-28T21:58:57.441Z,8.87
2022-09-28T22:01:26.629Z,8.10
2022-09-28T22:03:56.765Z,7.07
2022-09-28T22:06:28.273Z,6.80
2022-09-28T22:08:56.533Z,6.78
2022-09-28T22:11:25.642Z,6.72
2022-09-28T22:13:56.438Z,6.38
2022-09-28T22:16:26.716Z,7.10
2022-09-28T22:21:24.401Z,7.00
2022-09-28T22:23:52.887Z,6.93
2022-09-28T22:26:22.674Z,7.25
2022-09-28T22:28:52.468Z,9.05
2022-09-28T22:31:23.770Z,9.60
2022-09-28T22:33:52.185Z,8.27
2022-09-28T22:36:20.137Z,10.40
2022-09-28T22:38:49.119Z,10.35
2022-09-28T22:41:19.521Z,9.85
2022-09-28T22:43:48.487Z,11.27
2022-09-28T22:46:18.326Z,11.07
2022-09-28T22:48:49.838Z,12.23
2022-09-28T22:51:18.037Z,10.70
2022-09-28T22:53:46.534Z,10.25
2022-09-28T22:56:18.737Z,9.57
2022-09-28T22:58:47.677Z,9.48
2022-09-28T23:01:18.706Z,9.32
2022-09-28T23:03:49.582Z,9.65
2022-09-28T23:06:19.557Z,9.02
2022-09-28T23:08:48.322Z,8.43
2022-09-28T23:11:16.605Z,9.65
2022-09-28T23:13:44.592Z,9.45
2022-09-28T23:16:14.847Z,8.23
2022-09-28T23:18:43.627Z,9.60
2022-09-28T23:21:15.323Z,9.43
2022-09-28T23:23:43.658Z,8.85
2022-09-28T23:26:12.785Z,9.30
2022-09-28T23:28:40.825Z,9.05
2022-09-28T23:31:09.573Z,9.38
2022-09-28T23:33:37.650Z,9.20
2022-09-28T23:36:05.914Z,9.93
2022-09-28T23:38:35.925Z,9.82
2022-09-28T23:41:03.869Z,10.35
2022-09-28T23:43:31.822Z,9.98
2022-09-28T23:45:59.793Z,10.63
2022-09-28T23:48:27.706Z,10.48
2022-09-28T23:50:55.642Z,9.75
2022-09-28T23:53:23.527Z,9.25
2022-09-28T23:55:52.791Z,9.98
2022-09-28T23:58:20.908Z,12.30
